Time;durP1;ratioP1;P1;durP2;ratioP2;P2;SDS_P1;SDS_P2;PMS_P1;PMS_P2;Temp;Humidity;BMP_temperature;BMP_pressure;BME280_temperature;BME280_humidity;BME280_pressure;Samples;Min_cycle;Max_cycle;Signal;HPM_P1;HPM_P2
2023/03/25 00:01:14;;;;;;;6.03;4.60;;;;;;;4.66;77.87;96209.09;5093504;28;20048;-61
2023/03/25 00:03:45;;;;;;;6.30;5.28;;;;;;;4.63;77.48;96201.38;5093701;28;20047;-62
2023/03/25 00:06:18;;;;;;;6.00;4.70;;;;;;;4.55;77.46;96196.34;5093291;28;20044;-61
2023/03/25 00:08:45;;;;;;;5.85;4.47;;;;;;;4.51;77.28;96193.84;5093294;28;20105;-62
2023/03/25 00:11:17;;;;;;;6.72;5.35;;;;;;;4.49;77.40;96198.22;5093360;28;20127;-63
2023/03/25 00:13:46;;;;;;;7.05;5.68;;;;;;;4.44;78.40;96185.34;5093032;28;20505;-62
2023/03/25 00:16:14;;;;;;;8.90;5.22;;;;;;;4.40;78.92;96183.72;5093308;28;20059;-62
2023/03/25 00:18:41;;;;;;;5.88;4.88;;;;;;;4.41;79.03;96188.88;5093239;28;20106;-63
2023/03/25 00:21:10;;;;;;;7.45;5.43;;;;;;;4.35;79.45;96180.34;5093334;28;20044;-62
2023/03/25 00:23:40;;;;;;;8.18;5.80;;;;;;;4.31;79.86;96176.97;5093299;28;20048;-62
2023/03/25 00:26:08;;;;;;;7.38;5.03;;;;;;;4.35;79.95;96180.34;5093250;28;20440;-63
2023/03/25 00:28:37;;;;;;;10.70;6.13;;;;;;;4.36;80.87;96176.88;5093129;28;20044;-63
2023/03/25 00:31:06;;;;;;;11.13;5.80;;;;;;;4.30;81.15;96164.88;5092950;28;20101;-62
2023/03/25 00:33:34;;;;;;;7.05;5.38;;;;;;;4.28;80.89;96162.31;5093033;28;20058;-61
2023/03/25 00:36:03;;;;;;;108.22;70.55;;;;;;;4.36;80.47;96164.78;5093072;28;20066;-63
2023/03/25 00:38:34;;;;;;;33.17;25.02;;;;;;;4.37;79.86;96160.47;5093249;28;20117;-63
2023/03/25 00:41:21;;;;;;;17.13;13.40;;;;;;;4.32;79.56;96154.50;5093014;28;20093;-63
2023/03/25 00:43:50;;;;;;;6.95;6.13;;;;;;;4.29;79.41;96156.28;5092980;28;20482;-64
2023/03/25 00:46:17;;;;;;;11.50;6.15;;;;;;;4.23;80.18;96152.94;5092964;28;20059;-62
2023/03/25 00:48:44;;;;;;;9.60;6.43;;;;;;;4.14;80.63;96146.19;5092881;28;20051;-61
2023/03/25 00:51:13;;;;;;;8.95;6.57;;;;;;;4.15;81.90;96148.75;5092812;28;20068;-63
2023/03/25 00:53:41;;;;;;;8.25;6.10;;;;;;;4.08;82.18;96152.34;5092966;28;20048;-63
2023/03/25 00:56:09;;;;;;;13.05;5.78;;;;;;;4.16;82.45;96147.88;5092979;28;20052;-62
2023/03/25 00:58:39;;;;;;;7.30;5.47;;;;;;;4.21;81.96;96150.38;5092745;28;20066;-61
2023/03/25 01:01:11;;;;;;;7.15;5.68;;;;;;;4.16;81.52;96141.84;5092773;28;20070;-63
2023/03/25 01:03:39;;;;;;;6.88;5.10;;;;;;;4.17;81.35;96143.56;5096817;28;20398;-62
2023/03/25 01:06:10;;;;;;;7.65;5.78;;;;;;;4.16;81.02;96139.28;5096794;28;20391;-62
2023/03/25 01:08:38;;;;;;;6.82;5.47;;;;;;;4.13;81.03;96136.75;5096799;28;20431;-63
2023/03/25 01:11:08;;;;;;;8.13;5.38;;;;;;;4.16;80.71;96128.91;5096648;28;20106;-62
2023/03/25 01:13:35;;;;;;;6.85;5.15;;;;;;;4.19;80.57;96130.59;5096596;28;20070;-62
2023/03/25 01:16:07;;;;;;;9.75;6.28;;;;;;;4.16;80.68;96132.34;5096384;28;20130;-62
2023/03/25 01:18:36;;;;;;;7.97;5.60;;;;;;;4.20;80.54;96132.28;5096411;28;20482;-61
2023/03/25 01:21:04;;;;;;;6.80;5.20;;;;;;;4.13;80.79;96124.63;5096407;28;20086;-62
2023/03/25 01:23:32;;;;;;;7.18;5.38;;;;;;;4.03;81.37;96129.13;5096380;28;20044;-62
2023/03/25 01:25:59;;;;;;;8.07;5.47;;;;;;;4.01;81.69;96119.69;5096407;28;20052;-62
2023/03/25 01:28:29;;;;;;;9.63;5.78;;;;;;;3.88;82.25;96119.91;5096246;28;20058;-63
2023/03/25 01:31:01;;;;;;;6.85;5.70;;;;;;;3.88;82.58;96117.31;5096238;28;20079;-61
2023/03/25 01:33:31;;;;;;;6.75;5.68;;;;;;;3.93;81.88;96119.84;5096237;28;20494;-62
2023/03/25 01:36:01;;;;;;;7.32;5.70;;;;;;;3.90;81.76;96113.00;5096241;28;20047;-61
2023/03/25 01:38:29;;;;;;;7.10;5.57;;;;;;;3.89;81.87;96107.84;5096060;28;20097;-63
2023/03/25 01:40:57;;;;;;;8.88;6.30;;;;;;;3.84;82.65;96105.34;5096051;28;20059;-61
2023/03/25 01:43:25;;;;;;;10.65;6.57;;;;;;;3.75;84.31;96103.75;5096018;28;20040;-63
2023/03/25 01:45:52;;;;;;;11.50;6.30;;;;;;;3.81;83.82;96107.09;5096000;28;20048;-62
2023/03/25 01:48:24;;;;;;;6.90;5.50;;;;;;;3.82;82.78;96106.25;5095898;28;20097;-63
2023/03/25 01:50:56;;;;;;;7.03;5.47;;;;;;;3.84;82.36;96094.97;5095663;28;20050;-63
2023/03/25 01:53:31;;;;;;;7.72;5.80;;;;;;;3.77;82.10;96091.63;5095802;28;20097;-63
2023/03/25 01:56:02;;;;;;;7.88;6.00;;;;;;;3.75;82.24;96087.38;5095765;28;20059;-63
2023/03/25 01:58:31;;;;;;;7.90;6.25;;;;;;;3.71;83.04;96080.56;5095761;28;20101;-62
2023/03/25 02:01:02;;;;;;;9.18;7.25;;;;;;;3.76;83.58;96070.97;5095656;28;20052;-63
2023/03/25 02:03:36;;;;;;;9.77;7.97;;;;;;;3.75;83.39;96077.88;5095590;28;20056;-63
2023/03/25 02:06:10;;;;;;;9.52;5.95;;;;;;;3.78;82.73;96077.84;5095643;28;20048;-63
2023/03/25 02:08:40;;;;;;;7.22;6.10;;;;;;;3.78;81.52;96071.78;5095504;28;20405;-62
2023/03/25 02:11:08;;;;;;;9.82;6.30;;;;;;;3.75;81.38;96077.88;5095605;28;20413;-63
2023/03/25 02:13:39;;;;;;;9.48;7.38;;;;;;;3.75;81.53;96077.88;5095406;28;20504;-61
2023/03/25 02:16:26;;;;;;;9.85;6.53;;;;;;;3.76;83.43;96077.00;5095456;28;20044;-61
2023/03/25 02:19:06;;;;;;;8.13;6.47;;;;;;;3.54;83.56;96067.06;5095263;28;20448;-63
2023/03/25 02:22:16;;;;;;;9.45;7.25;;;;;;;3.53;84.15;96073.09;5095329;28;20048;-61
2023/03/25 02:25:03;;;;;;;8.25;6.20;;;;;;;3.63;83.36;96071.19;5047756;28;20039;-62
2023/03/25 02:27:50;;;;;;;7.28;5.63;;;;;;;3.58;82.96;96064.41;5095443;28;20052;-63
2023/03/25 02:30:35;;;;;;;7.90;6.13;;;;;;;3.51;83.13;96059.34;5095128;28;20048;-62
2023/03/25 02:33:30;;;;;;;7.18;5.25;;;;;;;3.49;82.98;96070.59;5095129;28;20075;-63
2023/03/25 02:36:24;;;;;;;9.20;6.78;;;;;;;3.49;83.59;96063.69;5094990;28;20144;-63
2023/03/25 02:38:56;;;;;;;9.38;5.82;;;;;;;3.53;82.78;96062.72;5095027;28;20058;-63
2023/03/25 02:41:41;;;;;;;9.50;6.05;;;;;;;3.47;82.63;96069.75;5094906;28;20405;-62
2023/03/25 02:44:14;;;;;;;7.88;6.28;;;;;;;3.48;82.85;96061.13;5094779;28;20097;-62
2023/03/25 02:46:49;;;;;;;10.25;6.63;;;;;;;3.47;82.88;96064.59;5094815;28;20044;-63
2023/03/25 02:49:20;;;;;;;8.70;6.40;;;;;;;3.51;82.50;96072.28;5094764;28;20132;-63
2023/03/25 02:51:55;;;;;;;9.98;6.40;;;;;;;3.49;83.52;96061.09;5094570;28;20147;-62
2023/03/25 02:54:27;;;;;;;7.90;6.97;;;;;;;3.41;83.97;96055.22;5094703;28;20482;-62
2023/03/25 02:56:56;;;;;;;9.63;6.70;;;;;;;3.45;84.77;96051.69;5094712;28;20053;-62
2023/03/25 02:59:25;;;;;;;8.82;6.10;;;;;;;3.45;84.36;96049.09;5094553;28;20134;-62
2023/03/25 03:01:58;;;;;;;8.48;6.30;;;;;;;3.37;85.24;96050.97;5094627;28;20048;-61
2023/03/25 03:04:25;;;;;;;7.75;6.18;;;;;;;3.33;85.44;96054.47;5094801;28;20478;-63
2023/03/25 03:06:55;;;;;;;9.98;7.00;;;;;;;3.26;85.24;96044.25;5094630;28;20084;-63
2023/03/25 03:09:32;;;;;;;9.93;6.82;;;;;;;3.24;85.23;96039.97;5094346;28;20079;-62
2023/03/25 03:12:10;;;;;;;10.50;6.30;;;;;;;3.22;84.93;96036.56;5094386;28;20044;-63
2023/03/25 03:14:53;;;;;;;9.57;6.45;;;;;;;3.25;84.66;96034.78;5094271;28;20039;-63
2023/03/25 03:17:26;;;;;;;8.90;6.53;;;;;;;3.22;84.79;96037.41;5094274;28;20210;-61
2023/03/25 03:19:58;;;;;;;211.98;135.48;;;;;;;3.19;84.87;96037.47;5094106;28;20055;-63
2023/03/25 03:22:39;;;;;;;36.53;23.75;;;;;;;3.14;85.13;96034.13;5094278;28;20071;-62
2023/03/25 03:25:17;;;;;;;16.95;13.52;;;;;;;3.16;84.88;96033.19;5093575;28;20048;-61
2023/03/25 03:27:50;;;;;;;12.85;8.63;;;;;;;3.21;84.49;96030.53;5093975;28;20555;-63
2023/03/25 03:30:25;;;;;;;9.15;8.18;;;;;;;3.15;84.35;96020.31;5094259;28;20051;-63
2023/03/25 03:32:56;;;;;;;9.75;7.63;;;;;;;3.16;85.49;96019.41;5093980;28;20048;-63
2023/03/25 03:35:30;;;;;;;12.95;8.68;;;;;;;3.08;85.74;96013.53;5093979;28;20044;-62
2023/03/25 03:38:01;;;;;;;12.25;8.48;;;;;;;3.09;85.97;96013.50;5093877;28;20452;-63
2023/03/25 03:40:32;;;;;;;10.30;6.65;;;;;;;3.16;85.53;96009.94;5093804;28;20044;-61
2023/03/25 03:43:03;;;;;;;10.98;6.97;;;;;;;3.10;85.39;96011.78;5093888;28;20041;-62
2023/03/25 03:45:35;;;;;;;11.60;7.15;;;;;;;3.07;85.91;96007.50;5093794;28;20441;-62
2023/03/25 03:48:06;;;;;;;9.13;6.68;;;;;;;3.12;85.83;96010.00;5094027;28;20052;-63
2023/03/25 03:50:39;;;;;;;9.43;7.32;;;;;;;3.12;85.57;96013.47;5093616;28;20082;-63
2023/03/25 03:53:12;;;;;;;11.43;7.50;;;;;;;3.06;85.95;96021.31;5093592;28;20444;-62
2023/03/25 03:55:48;;;;;;;14.00;8.60;;;;;;;3.08;87.31;96018.69;5093538;28;20509;-63
2023/03/25 03:58:22;;;;;;;9.98;6.95;;;;;;;3.19;87.07;96014.19;5093460;28;20062;-63
2023/03/25 04:00:58;;;;;;;9.15;7.15;;;;;;;3.25;86.29;96010.69;5093553;28;20048;-62
2023/03/25 04:03:33;;;;;;;15.27;6.90;;;;;;;3.24;85.95;96021.88;5093370;28;20111;-61
2023/03/25 04:06:08;;;;;;;8.50;6.07;;;;;;;3.23;83.47;96018.47;5093418;28;20044;-62
2023/03/25 04:08:45;;;;;;;8.45;6.22;;;;;;;3.21;82.71;96014.16;5093334;28;20089;-63
2023/03/25 04:11:20;;;;;;;8.75;6.88;;;;;;;3.27;82.82;96021.81;5093255;28;20460;-61
2023/03/25 04:13:51;;;;;;;8.75;7.28;;;;;;;3.25;82.78;96018.44;5093247;28;20059;-62
2023/03/25 04:16:18;;;;;;;7.97;6.38;;;;;;;3.25;82.88;96021.84;5093280;28;20047;-62
2023/03/25 04:18:47;;;;;;;10.27;6.75;;;;;;;3.33;82.76;96026.03;5093236;28;20044;-62
2023/03/25 04:21:16;;;;;;;7.75;6.63;;;;;;;3.33;82.81;96019.13;5093167;28;20055;-63
2023/03/25 04:23:44;;;;;;;14.65;7.22;;;;;;;3.28;82.79;96013.19;5093139;28;20469;-63
2023/03/25 04:26:12;;;;;;;15.20;7.32;;;;;;;3.25;83.40;96016.69;5093215;28;20117;-63
2023/03/25 04:28:43;;;;;;;8.02;5.97;;;;;;;3.21;83.29;96016.75;5093404;28;20044;-62
2023/03/25 04:31:14;;;;;;;;;;;;;;;3.19;83.68;96019.38;5093486;28;20044;-62
2023/03/25 04:33:41;;;;;;;;;;;;;;;3.15;83.47;96021.16;5093755;28;19955;-62
2023/03/25 04:36:09;;;;;;;10.45;6.70;;;;;;;3.06;84.72;96026.47;5092973;28;20415;-61
2023/03/25 04:38:37;;;;;;;9.35;6.20;;;;;;;3.12;85.20;96025.53;5097021;28;20048;-61
2023/03/25 04:41:05;;;;;;;9.27;7.20;;;;;;;3.22;85.17;96023.66;5097365;28;20500;-62
2023/03/25 04:43:33;;;;;;;11.57;7.70;;;;;;;3.24;85.24;96024.47;5097372;28;20451;-62
2023/03/25 04:46:01;;;;;;;36.05;23.58;;;;;;;3.30;85.14;96026.94;5097089;28;20055;-61
2023/03/25 04:48:32;;;;;;;22.15;16.02;;;;;;;3.39;85.28;96026.78;5097144;28;20055;-62
2023/03/25 04:51:03;;;;;;;;;;;;;;;3.48;84.31;96032.66;5097326;28;20044;-61
2023/03/25 04:53:30;;;;;;;8.63;7.15;;;;;;;3.54;83.62;96030.84;5096925;28;19924;-61
2023/03/25 04:55:57;;;;;;;10.48;7.05;;;;;;;4.02;85.24;96029.06;5096901;28;20043;-61
2023/03/25 04:58:25;;;;;;;9.38;7.15;;;;;;;4.89;83.36;96025.47;5096920;28;20102;-62
2023/03/25 05:00:56;;;;;;;7.28;5.78;;;;;;;5.91;80.44;96016.00;5096901;28;20052;-62
2023/03/25 05:03:25;;;;;;;;;;;;;;;6.89;73.63;96015.75;5097266;28;20425;-62
2023/03/25 05:05:55;;;;;;;5.85;4.82;;;;;;;7.87;70.42;96029.03;5096730;28;19927;-62
2023/03/25 05:08:22;;;;;;;;;;;;;;;8.79;66.60;96023.91;5097134;28;20048;-62
2023/03/25 05:10:50;;;;;;;4.32;3.65;;;;;;;9.64;63.25;96021.41;5096761;28;19926;-62
2023/03/25 05:13:17;;;;;;;6.25;4.05;;;;;;;10.54;59.60;96037.53;5096608;28;20490;-62
2023/03/25 05:15:45;;;;;;;5.22;4.03;;;;;;;11.31;56.31;96032.22;5096465;28;20047;-63
2023/03/25 05:18:15;;;;;;;4.30;3.70;;;;;;;11.78;55.60;96039.53;5096451;28;20044;-62
2023/03/25 05:20:49;;;;;;;5.43;4.43;;;;;;;12.50;54.53;96036.72;5096320;28;20101;-62
2023/03/25 05:23:18;;;;;;;5.57;3.80;;;;;;;13.36;52.84;96026.75;5096402;28;20506;-62
2023/03/25 05:25:46;;;;;;;5.93;3.60;;;;;;;14.17;50.16;96024.72;5096331;28;20055;-61
2023/03/25 05:28:13;;;;;;;4.47;3.72;;;;;;;14.81;47.31;96034.00;5096390;28;20051;-62
2023/03/25 05:30:42;;;;;;;4.78;3.50;;;;;;;15.22;46.46;96023.53;5096380;28;20040;-61
2023/03/25 05:33:10;;;;;;;6.50;3.40;;;;;;;15.64;45.02;96013.75;5096278;28;20043;-62
2023/03/25 05:35:41;;;;;;;6.90;3.80;;;;;;;15.93;44.96;96018.03;5095918;28;20494;-61
2023/03/25 05:38:15;;;;;;;3.92;3.53;;;;;;;16.45;44.11;96023.31;5096299;28;20044;-61
2023/03/25 05:40:43;;;;;;;5.25;3.25;;;;;;;16.89;44.28;96020.25;5096293;28;20550;-61
2023/03/25 05:43:10;;;;;;;4.18;3.15;;;;;;;17.51;43.46;96017.56;5096181;28;20048;-61
2023/03/25 05:45:37;;;;;;;5.40;3.50;;;;;;;17.96;41.59;96024.81;5096001;28;20044;-62
2023/03/25 05:48:05;;;;;;;3.92;3.53;;;;;;;18.38;41.34;96019.00;5095559;28;20050;-62
2023/03/25 05:50:33;;;;;;;4.10;3.42;;;;;;;18.90;40.57;96017.66;5095931;28;20052;-61
2023/03/25 05:53:00;;;;;;;4.07;2.92;;;;;;;19.43;38.73;96016.94;5096010;28;20056;-61
2023/03/25 05:55:29;;;;;;;3.80;3.47;;;;;;;19.76;39.40;96014.25;5095829;28;20055;-62
2023/03/25 05:57:57;;;;;;;3.70;3.25;;;;;;;20.11;37.85;96016.72;5095831;28;20044;-62
2023/03/25 06:00:24;;;;;;;3.80;3.40;;;;;;;20.46;37.30;96012.84;5095701;28;20127;-61
2023/03/25 06:02:52;;;;;;;6.10;3.53;;;;;;;20.74;36.30;96014.91;5096096;28;20048;-61
2023/03/25 06:05:22;;;;;;;3.70;3.30;;;;;;;21.05;36.13;96013.09;5095665;28;20052;-62
2023/03/25 06:07:50;;;;;;;4.53;3.63;;;;;;;21.53;35.87;96009.75;5095549;28;20044;-62
2023/03/25 06:10:18;;;;;;;4.53;3.58;;;;;;;22.16;35.12;96011.13;5095535;28;20048;-62
2023/03/25 06:12:47;;;;;;;5.65;3.13;;;;;;;22.61;34.39;96008.75;5095521;28;20048;-61
2023/03/25 06:15:20;;;;;;;4.57;3.88;;;;;;;22.63;33.23;96005.94;5095822;28;20127;-61
2023/03/25 06:17:47;;;;;;;4.32;3.92;;;;;;;23.08;34.44;96010.47;5095473;28;20048;-61
2023/03/25 06:20:18;;;;;;;4.57;4.07;;;;;;;22.90;33.20;96013.09;5095401;28;20052;-61
2023/03/25 06:22:46;;;;;;;5.00;4.15;;;;;;;22.90;33.59;96010.41;5095373;28;20052;-61
2023/03/25 06:25:17;;;;;;;6.22;4.75;;;;;;;22.54;34.34;96008.47;5095385;28;20052;-60
2023/03/25 06:27:48;;;;;;;6.65;5.10;;;;;;;22.20;35.06;96006.34;5095391;28;20071;-60
2023/03/25 06:30:23;;;;;;;7.85;4.60;;;;;;;22.01;35.46;96007.22;5095401;28;20490;-60
2023/03/25 06:32:51;;;;;;;5.03;4.53;;;;;;;22.02;35.06;96003.56;5095158;28;20109;-61
2023/03/25 06:35:20;;;;;;;4.88;4.38;;;;;;;21.94;35.39;96001.59;5095068;28;20051;-61
2023/03/25 06:37:48;;;;;;;12.40;5.22;;;;;;;22.28;35.08;96006.47;5095045;28;20502;-61
2023/03/25 06:40:16;;;;;;;8.35;5.28;;;;;;;21.82;34.90;96004.44;5094996;28;20129;-61
2023/03/25 06:42:43;;;;;;;6.72;5.20;;;;;;;21.25;36.87;96006.94;5094929;28;20076;-61
2023/03/25 06:45:12;;;;;;;4.95;4.45;;;;;;;21.17;36.66;96003.16;5094915;28;20048;-60
2023/03/25 06:47:40;;;;;;;7.82;5.55;;;;;;;21.40;36.26;96016.19;5094894;28;20063;-60
2023/03/25 06:50:09;;;;;;;6.30;5.70;;;;;;;21.08;36.39;96010.13;5094904;28;20052;-60
2023/03/25 06:52:36;;;;;;;7.85;5.85;;;;;;;20.24;37.69;96024.47;5094537;28;20479;-60
2023/03/25 06:55:04;;;;;;;7.40;5.70;;;;;;;20.47;37.49;96021.66;5094664;28;20044;-60
2023/03/25 06:57:32;;;;;;;6.75;5.30;;;;;;;20.66;36.90;96019.09;5094644;28;20499;-60
2023/03/25 06:59:59;;;;;;;6.15;4.93;;;;;;;20.86;36.88;96023.63;5093871;28;20109;-60
2023/03/25 07:02:28;;;;;;;4.63;4.13;;;;;;;21.10;36.15;96020.63;5094461;28;20079;-60
2023/03/25 07:04:56;;;;;;;7.15;4.70;;;;;;;20.99;36.33;96018.09;5094603;28;20083;-60
2023/03/25 07:07:23;;;;;;;5.30;4.78;;;;;;;20.69;37.95;96016.16;5094403;28;20044;-61
2023/03/25 07:09:53;;;;;;;7.28;4.82;;;;;;;20.39;37.83;96015.22;5094380;28;20048;-61
2023/03/25 07:12:24;;;;;;;7.55;4.70;;;;;;;20.66;37.42;96008.47;5094324;28;20482;-60
2023/03/25 07:14:52;;;;;;;5.50;4.50;;;;;;;20.69;37.44;96010.84;5094705;28;20440;-60
2023/03/25 07:17:19;;;;;;;7.00;4.97;;;;;;;20.53;37.52;96008.69;5094313;28;20051;-60
2023/03/25 07:19:48;;;;;;;6.35;4.15;;;;;;;20.61;37.16;96007.16;5094098;28;20051;-60
2023/03/25 07:22:16;;;;;;;6.30;4.90;;;;;;;20.53;38.41;96008.69;5094161;28;20521;-61
2023/03/25 07:24:43;;;;;;;5.32;4.22;;;;;;;20.91;37.91;96002.81;5094156;28;20044;-60
2023/03/25 07:27:11;;;;;;;6.40;4.68;;;;;;;20.83;37.51;96014.94;5094301;28;20065;-61
2023/03/25 07:29:38;;;;;;;8.63;4.25;;;;;;;20.60;37.97;96009.00;5094050;28;20040;-60
2023/03/25 07:32:06;;;;;;;5.85;4.70;;;;;;;20.77;37.27;96010.16;5093984;28;20505;-61
2023/03/25 07:34:33;;;;;;;5.30;4.65;;;;;;;20.76;37.47;96007.63;5094041;28;20044;-61
2023/03/25 07:37:02;;;;;;;6.68;5.00;;;;;;;20.78;36.91;96005.69;5093854;28;20514;-60
2023/03/25 07:39:30;;;;;;;6.27;4.87;;;;;;;21.02;37.14;95999.22;5093785;28;20044;-60
2023/03/25 07:41:57;;;;;;;5.05;4.38;;;;;;;20.93;35.03;95996.41;5093942;28;20456;-60
2023/03/25 07:44:24;;;;;;;7.72;4.95;;;;;;;20.68;36.95;96003.84;5093860;28;20064;-61
2023/03/25 07:46:52;;;;;;;5.45;4.40;;;;;;;20.53;36.08;96000.72;5093848;28;20386;-61
2023/03/25 07:49:19;;;;;;;4.80;4.30;;;;;;;20.63;36.50;95999.91;5093663;28;20467;-60
2023/03/25 07:51:46;;;;;;;5.82;4.13;;;;;;;20.56;37.12;96003.09;5093645;28;20083;-60
2023/03/25 07:54:15;;;;;;;4.82;3.95;;;;;;;20.50;37.41;95995.66;5093547;28;20494;-60
2023/03/25 07:56:43;;;;;;;5.18;4.28;;;;;;;20.62;35.36;95991.09;5093698;28;20135;-60
2023/03/25 07:59:10;;;;;;;5.18;3.95;;;;;;;20.93;35.19;95984.91;5093494;28;20050;-60
2023/03/25 08:01:37;;;;;;;6.70;4.13;;;;;;;20.94;34.25;95994.56;5093491;28;20051;-61
2023/03/25 08:04:04;;;;;;;4.82;3.53;;;;;;;21.09;33.46;95984.38;5093749;28;20078;-60
2023/03/25 08:06:32;;;;;;;6.95;3.97;;;;;;;21.25;34.20;95985.66;5093384;28;20055;-61
2023/03/25 08:08:59;;;;;;;6.60;3.97;;;;;;;21.40;34.83;95986.91;5093414;28;20044;-61
2023/03/25 08:11:28;;;;;;;5.45;4.28;;;;;;;21.25;34.01;95980.34;5093234;28;20044;-60
2023/03/25 08:13:58;;;;;;;4.75;4.28;;;;;;;21.63;33.36;95975.16;5093380;28;20052;-61
2023/03/25 08:16:25;;;;;;;6.03;3.78;;;;;;;21.50;36.22;95973.63;5093645;28;20044;-60
2023/03/25 08:18:52;;;;;;;5.78;4.30;;;;;;;21.55;35.67;95982.03;5093137;28;20102;-60
2023/03/25 08:21:24;;;;;;;4.28;3.85;;;;;;;21.68;35.78;95980.91;5093245;28;20516;-61
2023/03/25 08:23:53;;;;;;;4.95;4.03;;;;;;;21.86;35.50;95985.53;5093547;28;20462;-61
2023/03/25 08:26:20;;;;;;;7.13;4.43;;;;;;;21.92;35.13;95975.16;5093261;28;20052;-61
2023/03/25 08:28:49;;;;;;;6.82;4.57;;;;;;;21.87;35.78;95979.22;5093098;28;20097;-61
2023/03/25 08:31:19;;;;;;;6.03;4.13;;;;;;;21.80;36.33;95978.97;5093175;28;20078;-61
2023/03/25 08:33:46;;;;;;;4.27;3.87;;;;;;;21.86;36.17;95977.53;5093104;28;20051;-61
2023/03/25 08:36:18;;;;;;;6.68;4.20;;;;;;;22.12;35.34;95977.75;5093060;28;20048;-61
2023/03/25 08:38:46;;;;;;;7.05;4.78;;;;;;;21.98;35.79;95973.75;5093264;28;20052;-61
2023/03/25 08:41:14;;;;;;;5.47;4.57;;;;;;;21.79;36.99;95969.31;5092965;28;20052;-61
2023/03/25 08:43:41;;;;;;;6.75;4.72;;;;;;;21.96;36.62;95973.88;5093057;28;20075;-61
2023/03/25 08:46:10;;;;;;;9.68;4.57;;;;;;;21.85;37.42;95976.69;5093046;28;20066;-61
2023/03/25 08:48:38;;;;;;;7.95;4.35;;;;;;;21.66;38.06;95969.56;5092998;28;20581;-61
2023/03/25 08:51:06;;;;;;;5.10;4.60;;;;;;;21.77;37.79;95968.59;5092571;28;20489;-61
2023/03/25 08:53:33;;;;;;;6.57;4.65;;;;;;;21.92;36.74;95974.31;5092851;28;20053;-61
2023/03/25 08:56:01;;;;;;;6.53;4.28;;;;;;;21.89;37.04;95964.81;5092842;28;20047;-61
2023/03/25 08:58:28;;;;;;;5.93;4.57;;;;;;;21.67;37.70;95958.75;5092990;28;20062;-61
2023/03/25 09:00:57;;;;;;;5.90;4.38;;;;;;;21.79;37.50;95956.81;5092964;28;20040;-61
2023/03/25 09:03:27;;;;;;;5.55;4.50;;;;;;;21.61;38.99;95953.19;5092795;28;20059;-60
2023/03/25 09:05:55;;;;;;;5.57;4.93;;;;;;;21.50;38.92;95954.16;5092790;28;20052;-61
2023/03/25 09:08:22;;;;;;;7.07;4.90;;;;;;;21.63;37.01;95953.88;5092690;28;20288;-61
2023/03/25 09:10:50;;;;;;;4.80;4.30;;;;;;;21.43;38.00;95943.28;5092847;28;20068;-61
2023/03/25 09:13:17;;;;;;;6.22;4.28;;;;;;;21.50;37.57;95946.19;5092745;28;20055;-61
2023/03/25 09:15:45;;;;;;;5.68;4.80;;;;;;;21.37;35.94;95949.97;5092755;28;20131;-61
2023/03/25 09:18:12;;;;;;;7.80;5.32;;;;;;;21.18;39.53;95946.34;5092644;28;20048;-61
2023/03/25 09:20:42;;;;;;;6.15;5.22;;;;;;;21.12;37.30;95932.75;5092619;28;20145;-61
2023/03/25 09:23:10;;;;;;;6.35;4.82;;;;;;;21.16;38.43;95942.16;5094073;28;20048;-61
2023/03/25 09:25:38;;;;;;;7.03;4.68;;;;;;;21.14;39.86;95938.78;5096546;28;20052;-61
2023/03/25 09:28:05;;;;;;;5.68;4.95;;;;;;;21.08;40.21;95935.69;5096526;28;20048;-61
2023/03/25 09:30:33;;;;;;;8.00;5.22;;;;;;;21.03;37.36;95929.09;5096592;28;20109;-61
2023/03/25 09:33:01;;;;;;;5.47;4.75;;;;;;;20.99;38.40;95927.72;5096544;28;20469;-61
2023/03/25 09:35:28;;;;;;;8.70;5.45;;;;;;;20.96;38.13;95929.66;5096529;28;20055;-61
2023/03/25 09:37:57;;;;;;;7.85;5.20;;;;;;;21.06;38.97;95931.50;5096300;28;20052;-61
2023/03/25 09:40:25;;;;;;;11.38;4.57;;;;;;;21.03;39.08;95932.63;5096180;28;20044;-61
2023/03/25 09:43:04;;;;;;;8.63;5.25;;;;;;;21.17;38.76;95926.06;5096133;28;20052;-61
2023/03/25 09:45:36;;;;;;;6.00;5.38;;;;;;;21.09;38.61;95920.59;5096000;28;20043;-61
2023/03/25 09:48:10;;;;;;;6.28;5.15;;;;;;;20.84;39.46;95915.63;5096091;28;20101;-61
2023/03/25 09:50:39;;;;;;;10.38;5.47;;;;;;;20.97;39.69;95906.59;5096050;28;20051;-61
2023/03/25 09:53:16;;;;;;;7.47;5.57;;;;;;;21.13;39.28;95905.19;5095888;28;20040;-61
2023/03/25 09:55:46;;;;;;;6.53;4.90;;;;;;;21.10;39.74;95900.16;5095911;28;20040;-60
2023/03/25 09:58:28;;;;;;;7.07;5.40;;;;;;;20.98;38.67;95899.47;5095743;28;20055;-61
2023/03/25 10:01:00;;;;;;;5.97;5.38;;;;;;;20.96;40.74;95896.94;5095756;28;20048;-61
2023/03/25 10:03:35;;;;;;;7.63;5.20;;;;;;;21.00;39.62;95878.88;5095926;28;20058;-61
2023/03/25 10:06:17;;;;;;;6.85;5.07;;;;;;;21.02;39.74;95875.13;5095732;28;20131;-61
2023/03/25 10:09:09;;;;;;;9.38;5.28;;;;;;;21.07;40.50;95880.84;5095724;28;20056;-61
2023/03/25 10:11:45;;;;;;;8.98;5.15;;;;;;;21.08;40.55;95873.72;5095858;28;20044;-60
2023/03/25 10:14:19;;;;;;;7.85;5.53;;;;;;;20.87;41.04;95873.81;5095561;28;20135;-61
2023/03/25 10:17:01;;;;;;;9.18;5.07;;;;;;;20.90;40.63;95876.22;5095413;28;20046;-61
2023/03/25 10:19:43;;;;;;;6.20;5.05;;;;;;;21.21;39.42;95870.75;5095444;28;20083;-61
2023/03/25 10:22:17;;;;;;;6.65;5.22;;;;;;;21.21;38.99;95860.13;5095381;28;20056;-61
2023/03/25 10:24:52;;;;;;;8.10;4.95;;;;;;;21.18;40.41;95855.94;5095336;28;20044;-61
2023/03/25 10:27:23;;;;;;;9.73;5.38;;;;;;;21.37;39.35;95850.75;5095289;28;20101;-61
2023/03/25 10:29:56;;;;;;;5.97;4.90;;;;;;;21.36;39.75;95849.88;5095283;28;20536;-61
2023/03/25 10:32:32;;;;;;;8.35;5.38;;;;;;;21.36;39.87;95849.88;5095243;28;20045;-61
2023/03/25 10:35:04;;;;;;;6.03;5.43;;;;;;;21.52;40.85;95843.97;5095303;28;20406;-61
2023/03/25 10:37:35;;;;;;;8.48;5.45;;;;;;;21.44;39.03;95844.72;5094998;28;20410;-61
2023/03/25 10:40:17;;;;;;;7.90;5.72;;;;;;;21.14;40.00;95843.06;5094930;28;20044;-60
2023/03/25 10:42:54;;;;;;;9.60;5.28;;;;;;;21.19;41.25;95840.84;5094954;28;20105;-60
2023/03/25 10:45:24;;;;;;;7.13;5.20;;;;;;;21.24;41.64;95835.91;5095114;28;20044;-61
2023/03/25 10:47:55;;;;;;;6.53;4.97;;;;;;;21.11;39.95;95830.06;5094907;28;20040;-61
2023/03/25 10:50:23;;;;;;;6.03;5.43;;;;;;;21.30;40.83;95827.38;5094804;28;20643;-61
2023/03/25 10:52:54;;;;;;;7.00;5.30;;;;;;;21.33;39.96;95827.09;5094891;28;20059;-61
2023/03/25 10:55:24;;;;;;;;;;;;;;;21.54;39.89;95822.53;5095248;28;20109;-61
2023/03/25 10:57:52;;;;;;;;;;;;;;;21.66;40.14;95818.72;5095168;28;19920;-61
2023/03/25 11:00:23;;;;;;;6.10;5.35;;;;;;;21.48;39.77;95810.66;5094641;28;20370;-61
2023/03/25 11:02:51;;;;;;;7.82;5.10;;;;;;;21.32;41.49;95819.25;5094571;28;20060;-61
2023/03/25 11:05:21;;;;;;;6.68;5.50;;;;;;;20.99;40.45;95816.06;5094553;28;20126;-61
2023/03/25 11:07:51;;;;;;;7.70;6.23;;;;;;;20.83;43.03;95810.31;5094553;28;20055;-61
2023/03/25 11:10:22;;;;;;;7.40;5.57;;;;;;;20.95;40.85;95804.91;5094542;28;20285;-61
2023/03/25 11:12:53;;;;;;;6.97;5.85;;;;;;;20.98;41.65;95809.91;5094561;28;20523;-61
2023/03/25 11:15:24;;;;;;;7.00;5.72;;;;;;;21.19;40.24;95796.44;5094371;28;20124;-62
2023/03/25 11:18:03;;;;;;;9.32;5.35;;;;;;;21.15;40.12;95791.56;5094285;28;20040;-61
2023/03/25 11:20:36;;;;;;;8.45;5.72;;;;;;;21.13;40.33;95786.38;5094541;28;20383;-61
2023/03/25 11:23:08;;;;;;;8.85;4.80;;;;;;;21.30;40.78;95786.63;5094110;28;20047;-61
2023/03/25 11:25:42;;;;;;;9.68;5.35;;;;;;;21.21;42.26;95777.69;5094169;28;20044;-62
2023/03/25 11:28:24;;;;;;;7.40;5.85;;;;;;;21.12;40.71;95786.53;5094258;28;20126;-62
2023/03/25 11:31:14;;;;;;;11.05;6.25;;;;;;;20.87;41.63;95792.28;5094067;28;20105;-61
2023/03/25 11:33:45;;;;;;;6.85;6.07;;;;;;;20.69;41.39;95787.69;5094055;28;20444;-61
2023/03/25 11:36:27;;;;;;;7.15;5.70;;;;;;;20.52;41.02;95780.38;5093888;28;20482;-61
2023/03/25 11:39:01;;;;;;;8.38;6.05;;;;;;;20.53;41.95;95779.44;5094016;28;20044;-61
2023/03/25 11:41:34;;;;;;;8.65;6.05;;;;;;;20.68;42.06;95764.72;5093751;28;20132;-61
2023/03/25 11:44:06;;;;;;;6.80;5.55;;;;;;;20.76;41.42;95764.03;5093113;28;20044;-61
2023/03/25 11:46:36;;;;;;;11.10;5.97;;;;;;;20.88;42.95;95758.56;5093408;28;20050;-61
2023/03/25 11:49:12;;;;;;;7.70;5.78;;;;;;;20.93;42.27;95757.22;5093859;28;20063;-61
2023/03/25 11:51:40;;;;;;;7.35;6.63;;;;;;;21.10;43.54;95756.59;5093508;28;20048;-61
2023/03/25 11:54:09;;;;;;;11.60;8.85;;;;;;;21.32;41.90;95752.78;5093659;28;20048;-61